Time;durP1;ratioP1;P1;durP2;ratioP2;P2;SDS_P1;SDS_P2;PMS_P1;PMS_P2;Temp;Humidity;BMP_temperature;BMP_pressure;BME280_temperature;BME280_humidity;BME280_pressure;Samples;Min_cycle;Max_cycle;Signal;HPM_P1;HPM_P2
2023/04/24 00:01:50;;;;;;;0.77;0.17;;;;;;;;;;6254938;23;20054;-74
2023/04/24 00:04:16;;;;;;;0.50;0.20;;;18.50;89.70;;;;;;6254967;22;20382;-74
2023/04/24 00:06:43;;;;;;;0.80;0.20;;;18.60;55.70;;;;;;6255229;22;20008;-74
2023/04/24 00:09:12;;;;;;;0.25;0.15;;;18.60;90.00;;;;;;6255286;22;20000;-74
2023/04/24 00:11:37;;;;;;;0.20;0.10;;;18.40;90.00;;;;;;6255076;22;20008;-74
2023/04/24 00:14:03;;;;;;;0.30;0.20;;;18.20;77.80;;;;;;6255016;23;20374;-74
2023/04/24 00:16:29;;;;;;;0.60;0.10;;;;;;;;;;6255026;23;20000;-74
2023/04/24 00:18:55;;;;;;;0.30;0.13;;;;;;;;;;6245096;23;20083;-74
2023/04/24 00:21:21;;;;;;;0.25;0.20;;;18.20;66.30;;;;;;6254915;23;20386;-74
2023/04/24 00:23:47;;;;;;;0.70;0.25;;;18.00;58.90;;;;;;6254794;22;20028;-80
2023/04/24 00:26:13;;;;;;;0.40;0.10;;;;;;;;;;6254913;22;20031;-81
2023/04/24 00:28:40;;;;;;;0.77;0.25;;;;;;;;;;6254913;23;20026;-80
2023/04/24 00:31:06;;;;;;;0.10;0.10;;;;;;;;;;6254916;23;20007;-81
2023/04/24 00:33:32;;;;;;;0.35;0.20;;;;;;;;;;6254886;23;19992;-81
2023/04/24 00:35:57;;;;;;;0.10;0.10;;;18.40;73.90;;;;;;6254873;23;20079;-80
2023/04/24 00:38:23;;;;;;;0.95;0.25;;;;;;;;;;6254904;23;20420;-80
2023/04/24 00:40:53;;;;;;;0.30;0.10;;;18.00;73.20;;;;;;6254968;23;20010;-80
2023/04/24 00:43:19;;;;;;;0.20;0.20;;;;;;;;;;6245099;22;20000;-80
2023/04/24 00:45:46;;;;;;;0.75;0.13;;;18.20;57.20;;;;;;6245076;23;20378;-80
2023/04/24 00:48:12;;;;;;;0.20;0.17;;;18.40;90.20;;;;;;6254821;22;20591;-80
2023/04/24 00:50:38;;;;;;;1.38;0.20;;;18.20;56.40;;;;;;6254857;23;19992;-80
2023/04/24 00:53:04;;;;;;;0.20;0.10;;;18.20;90.10;;;;;;6254827;22;20491;-80
2023/04/24 00:55:30;;;;;;;0.22;0.13;;;18.30;90.30;;;;;;6254714;23;20027;-80
2023/04/24 00:57:56;;;;;;;0.20;0.10;;;17.60;90.00;;;;;;6254805;22;20455;-80
2023/04/24 01:00:22;;;;;;;0.43;0.13;;;17.90;90.10;;;;;;6254812;22;20000;-80
2023/04/24 01:02:48;;;;;;;0.10;0.10;;;18.10;90.20;;;;;;6254579;22;20057;-74
2023/04/24 01:05:14;;;;;;;0.80;0.20;;;17.90;90.20;;;;;;6254683;22;20368;-74
2023/04/24 01:07:47;;;;;;;0.60;0.20;;;18.20;90.20;;;;;;6244496;22;20008;-74
2023/04/24 01:10:13;;;;;;;0.10;0.10;;;17.70;90.00;;;;;;6244831;22;19996;-74
2023/04/24 01:12:39;;;;;;;0.88;0.25;;;18.00;79.30;;;;;;6254766;22;20022;-74
2023/04/24 01:15:06;;;;;;;0.15;0.10;;;18.00;55.50;;;;;;6254712;23;19996;-74
2023/04/24 01:17:32;;;;;;;0.10;0.10;;;18.00;90.20;;;;;;6244822;22;19999;-73
2023/04/24 01:19:59;;;;;;;0.57;0.10;;;17.80;90.10;;;;;;6254780;22;20007;-80
2023/04/24 01:22:25;;;;;;;0.30;0.20;;;17.80;70.40;;;;;;6254790;22;19999;-80
2023/04/24 01:24:52;;;;;;;0.20;0.10;;;17.80;57.10;;;;;;6254768;22;20000;-80
2023/04/24 01:27:18;;;;;;;0.50;0.10;;;17.90;90.20;;;;;;6254418;22;20008;-80
2023/04/24 01:29:44;;;;;;;0.20;0.20;;;18.10;90.30;;;;;;6254678;22;19996;-81
2023/04/24 01:32:10;;;;;;;1.33;0.13;;;17.90;65.80;;;;;;6254579;23;20355;-80
2023/04/24 01:34:37;;;;;;;0.82;0.20;;;17.90;57.50;;;;;;6254629;22;19992;-80
2023/04/24 01:37:02;;;;;;;0.30;0.10;;;17.40;90.10;;;;;;6256246;22;20034;-80
2023/04/24 01:39:28;;;;;;;0.32;0.20;;;17.70;90.20;;;;;;6256533;22;19992;-80
2023/04/24 01:41:55;;;;;;;0.95;0.20;;;18.10;90.50;;;;;;6256597;23;20000;-80
2023/04/24 01:44:21;;;;;;;0.25;0.20;;;;;;;;;;6256375;22;20436;-80
2023/04/24 01:46:47;;;;;;;0.52;0.30;;;;;;;;;;6256452;22;20058;-80
2023/04/24 01:49:13;;;;;;;0.13;0.10;;;17.70;61.40;;;;;;6256363;23;19996;-80
2023/04/24 01:51:38;;;;;;;0.65;0.22;;;17.40;90.40;;;;;;6256476;23;20050;-80
2023/04/24 01:54:05;;;;;;;0.43;0.20;;;17.90;90.70;;;;;;6256533;23;19997;-80
2023/04/24 01:56:36;;;;;;;0.22;0.20;;;17.90;58.30;;;;;;6246481;22;20080;-77
2023/04/24 01:59:03;;;;;;;0.90;0.30;;;18.00;90.70;;;;;;6256594;22;20423;-74
2023/04/24 02:01:35;;;;;;;2.08;0.35;;;17.80;58.40;;;;;;6246029;22;19996;-74
2023/04/24 02:04:01;;;;;;;0.65;0.65;;;;;;;;;;6256206;22;20015;-74
2023/04/24 02:06:27;;;;;;;1.10;0.35;;;;;;;;;;6256145;23;20419;-74
2023/04/24 02:08:53;;;;;;;1.35;0.40;;;18.00;65.20;;;;;;6256283;23;20079;-74
2023/04/24 02:11:19;;;;;;;0.30;0.20;;;;;;;;;;6256269;23;19996;-74
2023/04/24 02:13:45;;;;;;;0.85;0.40;;;;;;;;;;6246082;22;20086;-74
2023/04/24 02:16:11;;;;;;;0.73;0.30;;;;;;;;;;6256317;23;20023;-80
2023/04/24 02:18:37;;;;;;;1.05;0.50;;;;;;;;;;6256106;23;20054;-80
2023/04/24 02:21:03;;;;;;;1.00;0.40;;;;;;;;;;6256268;23;19996;-80
2023/04/24 02:23:29;;;;;;;1.00;0.50;;;;;;;;;;6256076;23;20000;-80
2023/04/24 02:25:55;;;;;;;1.05;0.30;;;;;;;;;;6256016;23;19997;-80
2023/04/24 02:28:21;;;;;;;0.57;0.30;;;;;;;;;;6256132;22;20007;-80
2023/04/24 02:30:47;;;;;;;0.50;0.32;;;;;;;;;;6255996;23;20039;-80
2023/04/24 02:33:13;;;;;;;0.40;0.30;;;17.60;90.60;;;;;;6246360;23;20026;-74
2023/04/24 02:35:39;;;;;;;1.30;0.50;;;17.80;90.70;;;;;;6246207;23;20020;-80
2023/04/24 02:38:06;;;;;;;0.50;0.40;;;;;;;;;;6245794;23;20372;-80
2023/04/24 02:40:32;;;;;;;0.35;0.28;;;;;;;;;;6245633;23;19997;-80
2023/04/24 02:42:58;;;;;;;0.57;0.30;;;17.60;86.10;;;;;;6246179;23;20008;-80
2023/04/24 02:45:24;;;;;;;1.42;0.43;;;17.80;90.80;;;;;;6245807;23;19996;-80
2023/04/24 02:47:50;;;;;;;0.50;0.38;;;18.00;90.90;;;;;;6245133;23;20436;-80
2023/04/24 02:50:16;;;;;;;1.95;0.40;;;17.30;90.50;;;;;;6245666;23;20050;-80
2023/04/24 02:52:42;;;;;;;1.80;0.70;;;17.30;90.70;;;;;;6245645;23;20043;-80
2023/04/24 02:55:08;;;;;;;1.95;0.30;;;17.90;90.80;;;;;;6246057;23;19992;-80
2023/04/24 02:57:34;;;;;;;0.90;0.45;;;17.70;90.80;;;;;;6245548;23;20456;-80
2023/04/24 03:00:01;;;;;;;1.50;0.30;;;;;;;;;;6245635;23;19993;-80
2023/04/24 03:02:27;;;;;;;0.85;0.40;;;;;;;;;;6245583;23;20011;-80
2023/04/24 03:04:53;;;;;;;0.60;0.40;;;17.80;76.60;;;;;;6245927;23;20331;-80
2023/04/24 03:07:20;;;;;;;0.65;0.40;;;;;;;;;;6255669;22;20079;-80
2023/04/24 03:09:46;;;;;;;0.90;0.50;;;;;;;;;;6255737;22;20011;-80
2023/04/24 03:12:12;;;;;;;1.40;0.40;;;17.20;86.90;;;;;;6255802;23;20000;-79
2023/04/24 03:14:38;;;;;;;0.90;0.40;;;;;;;;;;6255549;23;19996;-80
2023/04/24 03:17:04;;;;;;;0.95;0.45;;;;;;;;;;6255618;23;20000;-80
2023/04/24 03:19:29;;;;;;;1.55;0.40;;;17.90;90.90;;;;;;6255634;22;19996;-80
2023/04/24 03:21:55;;;;;;;2.72;0.52;;;17.50;81.40;;;;;;6255544;23;20122;-80
2023/04/24 03:24:22;;;;;;;0.82;0.40;;;;;;;;;;6255554;23;19992;-80
2023/04/24 03:26:48;;;;;;;0.63;0.20;;;;;;;;;;6245516;22;20046;-80
2023/04/24 03:29:13;;;;;;;0.55;0.30;;;17.80;90.80;;;;;;6255665;23;19996;-74
2023/04/24 03:31:39;;;;;;;0.30;0.30;;;17.40;77.80;;;;;;6255533;23;20000;-74
2023/04/24 03:34:05;;;;;;;1.45;0.40;;;;;;;;;;6255502;23;20030;-74
2023/04/24 03:36:31;;;;;;;1.63;0.65;;;;;;;;;;6255472;23;20058;-74
2023/04/24 03:38:57;;;;;;;0.90;0.30;;;17.40;69.10;;;;;;6255438;22;19996;-74
2023/04/24 03:41:23;;;;;;;1.08;0.52;;;17.70;90.90;;;;;;6255510;23;20335;-74
2023/04/24 03:43:48;;;;;;;1.13;0.30;;;17.80;90.80;;;;;;6255395;22;19993;-74
2023/04/24 03:46:14;;;;;;;0.70;0.30;;;17.70;90.90;;;;;;6245483;23;20087;-74
2023/04/24 03:48:40;;;;;;;0.30;0.22;;;;;;;;;;6255470;22;20072;-74
2023/04/24 03:51:06;;;;;;;1.65;0.40;;;;;;;;;;6255308;23;20027;-74
2023/04/24 03:53:32;;;;;;;0.52;0.22;;;17.50;77.40;;;;;;6255334;23;19996;-74
2023/04/24 03:55:58;;;;;;;1.02;0.30;;;17.70;78.10;;;;;;6255274;23;20023;-74
2023/04/24 03:58:23;;;;;;;0.40;0.20;;;17.50;67.50;;;;;;6255227;23;19993;-74
2023/04/24 04:03:30;;;;;;;1.05;0.20;;;17.60;54.50;;;;;;6224926;23;20020;-83
2023/04/24 04:05:56;;;;;;;0.68;0.38;;;;;;;;;;6255298;23;20000;-83
2023/04/24 04:08:22;;;;;;;0.60;0.30;;;17.40;91.00;;;;;;6255551;23;20079;-83
2023/04/24 04:10:47;;;;;;;0.68;0.20;;;17.70;90.80;;;;;;6255359;23;19996;-82
2023/04/24 04:13:13;;;;;;;0.40;0.35;;;17.50;90.80;;;;;;6255330;23;20039;-82
2023/04/24 04:15:39;;;;;;;0.25;0.20;;;;;;;;;;6255286;23;20366;-83
2023/04/24 04:18:05;;;;;;;1.02;0.28;;;;;;;;;;6245514;23;20416;-84
2023/04/24 04:20:31;;;;;;;0.93;0.30;;;17.40;71.20;;;;;;6255377;23;20002;-83
2023/04/24 04:22:56;;;;;;;0.77;0.40;;;17.20;90.70;;;;;;6255242;23;20023;-83
2023/04/24 04:25:22;;;;;;;1.05;0.35;;;17.40;90.80;;;;;;6255306;23;19992;-83
2023/04/24 04:27:48;;;;;;;0.20;0.20;;;17.80;90.90;;;;;;6245340;22;20012;-83
2023/04/24 04:30:14;;;;;;;0.80;0.30;;;17.40;90.90;;;;;;6255250;22;20003;-83
2023/04/24 04:32:40;;;;;;;0.47;0.20;;;17.40;90.60;;;;;;6245242;23;20082;-83
2023/04/24 04:35:06;;;;;;;0.50;0.43;;;17.60;90.90;;;;;;6255225;23;19996;-83
2023/04/24 04:37:34;;;;;;;0.40;0.30;;;17.40;90.60;;;;;;6255383;22;20283;-84
2023/04/24 04:40:01;;;;;;;0.30;0.30;;;17.60;57.50;;;;;;6255267;22;20340;-83
2023/04/24 04:42:28;;;;;;;0.10;0.10;;;17.60;63.50;;;;;;6255262;22;20068;-84
2023/04/24 04:44:54;;;;;;;0.20;0.20;;;;;;;;;;6245393;22;19996;-83
2023/04/24 04:47:24;;;;;;;0.65;0.20;;;17.30;62.20;;;;;;6255115;23;20030;-84
2023/04/24 04:49:51;;;;;;;;;;;17.60;59.60;;;;;;6255624;22;20020;-84
2023/04/24 04:52:17;;;;;;;0.60;0.20;;;;;;;;;;6255145;22;20270;-83
2023/04/24 04:54:43;;;;;;;0.30;0.20;;;;;;;;;;6245219;23;20004;-83
2023/04/24 04:57:09;;;;;;;0.17;0.17;;;;;;;;;;6254483;23;20047;-84
2023/04/24 04:59:35;;;;;;;1.42;0.20;;;17.60;67.70;;;;;;6254997;23;20004;-83
2023/04/24 05:02:01;;;;;;;0.30;0.20;;;;;;;;;;6254769;23;20058;-84
2023/04/24 05:04:26;;;;;;;0.52;0.28;;;17.40;90.90;;;;;;6255281;23;20000;-85
2023/04/24 05:06:53;;;;;;;1.77;0.20;;;;;;;;;;6255003;23;20012;-84
2023/04/24 05:09:18;;;;;;;0.98;0.28;;;17.40;91.00;;;;;;6244756;23;19997;-84
2023/04/24 05:11:44;;;;;;;0.20;0.20;;;17.80;90.90;;;;;;6246740;22;20001;-84
2023/04/24 05:14:10;;;;;;;0.88;0.40;;;17.50;90.80;;;;;;6257179;22;19992;-84
2023/04/24 05:16:37;;;;;;;0.10;0.10;;;17.90;91.00;;;;;;6257205;23;19996;-84
2023/04/24 05:19:02;;;;;;;0.75;0.30;;;17.80;90.90;;;;;;6257039;22;20010;-84
2023/04/24 05:21:29;;;;;;;0.60;0.30;;;17.60;90.90;;;;;;6257302;23;20067;-86
2023/04/24 05:23:54;;;;;;;0.22;0.20;;;17.10;90.70;;;;;;6247652;22;20000;-86
2023/04/24 05:26:20;;;;;;;0.65;0.40;;;17.50;90.80;;;;;;6257092;23;20035;-85
2023/04/24 05:28:45;;;;;;;0.30;0.30;;;17.20;90.80;;;;;;6257141;23;19993;-84
2023/04/24 05:31:12;;;;;;;2.50;0.60;;;17.80;81.30;;;;;;6257003;23;20000;-86
2023/04/24 05:33:38;;;;;;;0.35;0.30;;;;;;;;;;6257322;22;20016;-84
2023/04/24 05:36:05;;;;;;;1.55;0.20;;;;;;;;;;6256702;23;20046;-84
2023/04/24 05:38:31;;;;;;;0.88;0.20;;;;;;;;;;6247230;22;20044;-85
2023/04/24 05:40:57;;;;;;;3.13;0.47;;;;;;;;;;6261612;23;19996;-87
2023/04/24 05:43:23;;;;;;;5.00;0.68;;;;;;;;;;6262054;23;20011;-83
2023/04/24 05:45:49;;;;;;;1.73;0.77;;;;;;;;;;6257290;23;20018;-85
2023/04/24 05:48:15;;;;;;;2.75;0.50;;;;;;;;;;6257031;23;20000;-88
2023/04/24 05:50:41;;;;;;;1.50;0.50;;;;;;;;;;6258278;22;19996;-89
2023/04/24 05:53:07;;;;;;;3.28;0.50;;;;;;;;;;6257662;23;20026;-87
2023/04/24 05:55:33;;;;;;;2.67;0.93;;;17.40;81.50;;;;;;6257611;23;20066;-88
2023/04/24 05:57:59;;;;;;;1.20;0.50;;;;;;;;;;6257785;23;19996;-89
2023/04/24 06:00:26;;;;;;;1.67;0.50;;;17.50;58.90;;;;;;6248093;23;20010;-88
2023/04/24 06:02:52;;;;;;;1.02;0.75;;;;;;;;;;6257019;22;20372;-84
2023/04/24 06:05:18;;;;;;;2.47;0.52;;;;;;;;;;6256928;22;20066;-91
2023/04/24 06:07:44;;;;;;;1.80;0.45;;;17.70;91.00;;;;;;6258100;23;20008;-88
2023/04/24 06:10:10;;;;;;;0.90;0.47;;;17.70;91.10;;;;;;6248382;23;19999;-92
2023/04/24 06:12:36;;;;;;;1.77;0.80;;;17.60;91.10;;;;;;6247588;23;20000;-86
2023/04/24 06:15:02;;;;;;;3.53;0.95;;;17.40;91.00;;;;;;6265428;22;20018;-77
2023/04/24 06:17:28;;;;;;;3.15;0.60;;;17.20;79.10;;;;;;6256566;22;20002;-84
2023/04/24 06:19:53;;;;;;;1.60;0.50;;;17.50;91.10;;;;;;6256562;23;20031;-80
2023/04/24 06:22:19;;;;;;;0.90;0.70;;;17.20;85.60;;;;;;6255772;22;20038;-89
2023/04/24 06:24:45;;;;;;;2.78;0.68;;;;;;;;;;6256640;23;19996;-74
2023/04/24 06:27:11;;;;;;;2.42;0.90;;;17.80;67.40;;;;;;6246356;23;20008;-84
2023/04/24 06:29:37;;;;;;;2.95;0.80;;;;;;;;;;6246777;23;20002;-79
2023/04/24 06:32:04;;;;;;;0.93;0.85;;;;;;;;;;6246436;23;20008;-78
2023/04/24 06:34:30;;;;;;;2.75;0.95;;;17.60;91.20;;;;;;6246188;23;20024;-79
2023/04/24 06:36:56;;;;;;;3.47;0.85;;;17.90;91.30;;;;;;6246555;22;20000;-75
2023/04/24 06:39:22;;;;;;;2.05;0.68;;;;;;;;;;6256197;23;20640;-82
2023/04/24 06:41:48;;;;;;;2.03;0.73;;;;;;;;;;6256231;23;20011;-77
2023/04/24 06:44:15;;;;;;;1.95;1.00;;;17.90;91.40;;;;;;6256007;23;20008;-79
2023/04/24 06:46:41;;;;;;;2.90;0.70;;;17.90;91.30;;;;;;6256411;22;20083;-72
2023/04/24 06:49:07;;;;;;;2.60;0.70;;;;;;;;;;6255970;22;19993;-76
2023/04/24 06:51:33;;;;;;;5.40;1.33;;;;;;;;;;6255999;23;20402;-71
2023/04/24 06:53:59;;;;;;;1.80;0.90;;;17.70;56.90;;;;;;6255963;23;20020;-72
2023/04/24 06:56:25;;;;;;;5.88;1.17;;;17.70;59.10;;;;;;6255956;23;19996;-71
2023/04/24 06:58:51;;;;;;;1.70;0.90;;;17.80;85.50;;;;;;6255747;22;19996;-72
2023/04/24 07:01:17;;;;;;;2.40;1.20;;;;;;;;;;6255451;23;20073;-72
2023/04/24 07:03:43;;;;;;;4.13;1.00;;;;;;;;;;6245384;23;20411;-74
2023/04/24 07:06:11;;;;;;;4.38;1.27;;;17.90;57.30;;;;;;6255579;23;20067;-72
2023/04/24 07:08:36;;;;;;;3.53;0.95;;;18.10;67.40;;;;;;6245652;22;20427;-71
2023/04/24 07:11:02;;;;;;;4.18;0.70;;;;;;;;;;6255630;23;20071;-73
2023/04/24 07:13:29;;;;;;;5.05;1.58;;;;;;;;;;6245491;23;20004;-72
2023/04/24 07:15:56;;;;;;;4.72;1.33;;;17.70;91.20;;;;;;6245931;22;20331;-71
2023/04/24 07:18:22;;;;;;;5.22;1.70;;;18.20;91.40;;;;;;6245607;22;20123;-72
2023/04/24 07:20:50;;;;;;;5.60;1.60;;;18.00;91.30;;;;;;6245572;22;20451;-72
2023/04/24 07:23:16;;;;;;;4.63;1.38;;;;;;;;;;6245480;22;19996;-71
2023/04/24 07:25:42;;;;;;;6.18;1.23;;;17.80;91.20;;;;;;6245769;23;20007;-71
2023/04/24 07:28:08;;;;;;;5.20;1.42;;;17.80;91.40;;;;;;6245345;23;20079;-72
2023/04/24 07:30:34;;;;;;;3.00;1.10;;;18.10;91.30;;;;;;6255670;23;19996;-72
2023/04/24 07:33:00;;;;;;;3.47;1.33;;;18.10;91.40;;;;;;6255572;22;20004;-72
2023/04/24 07:35:26;;;;;;;4.40;1.17;;;17.90;59.30;;;;;;6255562;23;20435;-72
2023/04/24 07:37:55;;;;;;;5.63;1.00;;;17.70;91.20;;;;;;6255624;22;20000;-71
2023/04/24 07:40:21;;;;;;;3.38;0.95;;;17.90;91.20;;;;;;6255640;23;20003;-71
2023/04/24 07:42:48;;;;;;;4.18;1.30;;;17.90;72.10;;;;;;6255583;22;20020;-72
2023/04/24 07:45:14;;;;;;;4.97;1.42;;;18.10;91.20;;;;;;6255409;22;20003;-72
2023/04/24 07:47:43;;;;;;;6.55;1.33;;;17.80;76.10;;;;;;6255230;23;20008;-72
2023/04/24 07:50:10;;;;;;;4.07;1.17;;;18.10;68.10;;;;;;6255482;22;20426;-72
2023/04/24 07:52:36;;;;;;;4.75;1.52;;;17.90;90.50;;;;;;6255438;22;20000;-73
2023/04/24 07:55:02;;;;;;;4.72;1.50;;;17.90;91.10;;;;;;6245902;23;20074;-72
2023/04/24 07:57:28;;;;;;;4.88;1.10;;;18.20;91.20;;;;;;6243536;23;20508;-72
2023/04/24 07:59:54;;;;;;;3.53;1.00;;;18.00;91.20;;;;;;6245034;22;19996;-72
2023/04/24 08:02:21;;;;;;;2.83;1.27;;;17.90;91.10;;;;;;6255144;22;20011;-72
2023/04/24 08:04:47;;;;;;;6.40;1.20;;;;;;;;;;6245469;22;20073;-73
2023/04/24 08:07:13;;;;;;;3.90;1.20;;;;;;;;;;6255325;23;20429;-72
2023/04/24 08:09:39;;;;;;;2.92;1.13;;;;;;;;;;6255171;23;20006;-71
2023/04/24 08:12:05;;;;;;;4.57;1.10;;;;;;;;;;6255201;23;19996;-72
2023/04/24 08:14:31;;;;;;;4.68;1.17;;;;;;;;;;6255113;23;20062;-72
2023/04/24 08:16:59;;;;;;;3.45;1.10;;;;;;;;;;6256296;23;20434;-71
2023/04/24 08:19:25;;;;;;;2.97;1.20;;;;;;;;;;6255289;22;20002;-73
2023/04/24 08:21:51;;;;;;;4.00;1.10;;;;;;;;;;6254838;23;20482;-72
2023/04/24 08:24:17;;;;;;;3.25;1.05;;;;;;;;;;6254365;23;19993;-72
2023/04/24 08:26:43;;;;;;;3.80;0.85;;;;;;;;;;6252526;23;20340;-73
2023/04/24 08:29:09;;;;;;;3.65;0.90;;;18.10;59.10;;;;;;6252601;23;20003;-74
2023/04/24 08:31:35;;;;;;;3.95;1.48;;;;;;;;;;6252475;23;19996;-74
2023/04/24 08:34:01;;;;;;;3.63;1.08;;;;;;;;;;6252649;23;20086;-72
2023/04/24 08:36:27;;;;;;;2.92;1.02;;;;;;;;;;6252658;23;20618;-74
2023/04/24 08:38:53;;;;;;;2.92;1.05;;;18.40;72.70;;;;;;6245080;23;20174;-75
2023/04/24 08:41:19;;;;;;;3.80;0.85;;;;;;;;;;6255032;23;20023;-74
2023/04/24 08:43:49;;;;;;;2.80;0.90;;;18.10;59.00;;;;;;6254193;23;20462;-74
2023/04/24 08:46:16;;;;;;;4.53;0.70;;;18.10;58.40;;;;;;6244624;22;20022;-75
2023/04/24 08:48:42;;;;;;;2.53;0.90;;;18.30;91.10;;;;;;6254875;22;20388;-75
2023/04/24 08:51:08;;;;;;;4.80;0.90;;;18.20;91.10;;;;;;6255003;22;20072;-75
2023/04/24 08:53:35;;;;;;;4.30;1.27;;;18.00;91.10;;;;;;6255004;22;20000;-75
2023/04/24 08:56:01;;;;;;;2.80;1.00;;;;;;;;;;6245199;22;20015;-75
2023/04/24 08:58:28;;;;;;;2.47;0.90;;;18.10;57.20;;;;;;6254254;23;19996;-74
2023/04/24 09:00:57;;;;;;;2.80;0.77;;;18.30;90.90;;;;;;6254898;22;20075;-75
2023/04/24 09:03:23;;;;;;;2.95;1.05;;;;;;;;;;6254512;22;20095;-75
2023/04/24 09:05:50;;;;;;;2.80;0.82;;;18.10;79.50;;;;;;6254694;23;19996;-74
2023/04/24 09:08:18;;;;;;;2.67;0.90;;;17.60;90.90;;;;;;6254796;22;20323;-73
2023/04/24 09:10:44;;;;;;;5.25;1.50;;;18.10;90.80;;;;;;6254913;22;20000;-74
2023/04/24 09:13:11;;;;;;;2.17;1.00;;;;;;;;;;6244663;22;19996;-73
2023/04/24 09:15:38;;;;;;;2.08;0.98;;;18.10;58.80;;;;;;6244688;22;20394;-73
2023/04/24 09:18:05;;;;;;;1.75;0.77;;;18.20;91.00;;;;;;6254778;22;20004;-74
2023/04/24 09:20:31;;;;;;;4.43;1.10;;;18.30;91.10;;;;;;6254804;23;20473;-74
2023/04/24 09:22:58;;;;;;;1.80;0.80;;;18.10;56.50;;;;;;6244880;22;20071;-74
2023/04/24 09:25:35;;;;;;;2.72;0.82;;;18.20;91.00;;;;;;6244795;22;20004;-73
2023/04/24 09:28:03;;;;;;;2.58;1.20;;;18.20;90.20;;;;;;6244630;22;20015;-74
2023/04/24 09:30:29;;;;;;;1.60;0.73;;;;;;;;;;6244933;22;20415;-73
2023/04/24 09:33:14;;;;;;;3.13;0.93;;;18.10;86.60;;;;;;6244863;23;20304;-74
2023/04/24 09:35:51;;;;;;;3.03;0.88;;;18.20;59.10;;;;;;6244967;22;20004;-72
2023/04/24 09:38:18;;;;;;;1.38;0.70;;;;;;;;;;6244475;22;20490;-73
2023/04/24 09:40:44;;;;;;;1.85;0.80;;;;;;;;;;6244861;23;20004;-74
2023/04/24 09:43:11;;;;;;;4.45;0.90;;;18.20;91.10;;;;;;6244773;23;20000;-74
2023/04/24 09:45:39;;;;;;;1.50;0.75;;;18.10;59.00;;;;;;6244765;23;20063;-75
2023/04/24 09:48:09;;;;;;;1.50;0.80;;;17.70;77.00;;;;;;6244267;22;20020;-74
2023/04/24 09:50:35;;;;;;;4.97;0.68;;;18.10;91.00;;;;;;6244889;22;20058;-75
2023/04/24 09:53:03;;;;;;;2.55;0.90;;;18.10;91.00;;;;;;6244678;23;20000;-72
2023/04/24 09:55:30;;;;;;;2.92;0.90;;;18.20;57.10;;;;;;6244394;22;19992;-73
2023/04/24 09:57:58;;;;;;;2.55;0.57;;;18.10;60.90;;;;;;6246142;23;20000;-74
2023/04/24 10:00:26;;;;;;;2.67;0.77;;;18.30;91.10;;;;;;6246651;22;20000;-72
2023/04/24 10:03:11;;;;;;;2.75;0.70;;;18.10;91.10;;;;;;6246098;22;20070;-73
2023/04/24 10:05:38;;;;;;;2.35;0.85;;;18.20;59.10;;;;;;6246531;22;20004;-73
2023/04/24 10:08:10;;;;;;;1.65;0.80;;;18.10;71.20;;;;;;6246462;22;20008;-74
2023/04/24 10:10:44;;;;;;;1.58;0.60;;;18.20;54.60;;;;;;6246187;22;19992;-74
2023/04/24 10:13:12;;;;;;;2.38;0.65;;;18.20;58.50;;;;;;6246109;22;20054;-72
2023/04/24 10:15:40;;;;;;;1.67;0.50;;;18.30;91.20;;;;;;6246112;22;19996;-71
2023/04/24 10:18:08;;;;;;;0.98;0.57;;;18.50;91.20;;;;;;6246617;22;20014;-72
2023/04/24 10:20:36;;;;;;;3.92;0.57;;;18.10;91.00;;;;;;6246353;22;20000;-72
2023/04/24 10:23:02;;;;;;;3.45;0.95;;;;;;;;;;6245945;22;20033;-73
2023/04/24 10:25:33;;;;;;;0.90;0.55;;;18.20;59.00;;;;;;6246302;23;20339;-76
2023/04/24 10:28:00;;;;;;;1.50;0.80;;;18.20;58.50;;;;;;6246289;22;20358;-72
2023/04/24 10:30:28;;;;;;;1.30;0.50;;;18.40;91.10;;;;;;6245106;22;19992;-73
2023/04/24 10:32:54;;;;;;;1.58;0.45;;;17.90;90.90;;;;;;6246303;22;20075;-75
2023/04/24 10:35:22;;;;;;;1.85;0.52;;;18.20;91.00;;;;;;6255981;23;20332;-74
2023/04/24 10:37:57;;;;;;;2.45;0.47;;;18.10;90.90;;;;;;6255994;22;19997;-74
2023/04/24 10:40:34;;;;;;;0.70;0.50;;;18.20;91.00;;;;;;6255972;22;19996;-74
2023/04/24 10:43:06;;;;;;;1.48;0.38;;;17.90;82.40;;;;;;6256025;22;19992;-72
2023/04/24 10:45:32;;;;;;;2.53;0.70;;;18.20;91.00;;;;;;6246140;22;20000;-76
2023/04/24 10:48:10;;;;;;;1.30;0.40;;;18.30;91.00;;;;;;6255840;22;20015;-74
2023/04/24 10:50:47;;;;;;;1.30;0.50;;;17.80;91.00;;;;;;6255902;22;20001;-74
2023/04/24 10:53:31;;;;;;;0.93;0.40;;;18.30;54.50;;;;;;6255822;22;20067;-75
2023/04/24 10:55:57;;;;;;;1.75;0.70;;;;;;;;;;6255485;23;20000;-72
2023/04/24 10:58:23;;;;;;;1.23;0.47;;;18.60;59.10;;;;;;6254266;23;20508;-71
2023/04/24 11:00:57;;;;;;;2.58;0.73;;;18.30;69.40;;;;;;6255605;22;20000;-72
2023/04/24 11:03:28;;;;;;;2.22;0.47;;;18.40;71.00;;;;;;6244660;22;20054;-71
2023/04/24 11:06:05;;;;;;;1.92;0.55;;;18.30;91.00;;;;;;6255825;22;20316;-71
2023/04/24 11:08:45;;;;;;;1.45;0.43;;;18.30;56.20;;;;;;6255321;22;20082;-72
2023/04/24 11:11:13;;;;;;;1.27;0.40;;;18.40;58.70;;;;;;6255686;22;20000;-71
2023/04/24 11:13:54;;;;;;;1.42;0.50;;;18.40;54.50;;;;;;6255746;22;20097;-71
2023/04/24 11:16:28;;;;;;;3.10;0.40;;;18.70;65.50;;;;;;6255571;22;19996;-71
2023/04/24 11:19:16;;;;;;;1.98;0.45;;;18.20;90.90;;;;;;6255526;22;20102;-72
2023/04/24 11:21:42;;;;;;;2.35;0.40;;;;;;;;;;6254972;22;20007;-71
2023/04/24 11:24:23;;;;;;;2.15;0.40;;;18.20;90.90;;;;;;6255548;23;20000;-72
2023/04/24 11:26:50;;;;;;;2.05;0.47;;;18.40;90.90;;;;;;6255362;23;20004;-71
2023/04/24 11:29:16;;;;;;;1.63;0.70;;;;;;;;;;6255544;22;20000;-72
2023/04/24 11:31:49;;;;;;;2.15;0.60;;;18.50;58.80;;;;;;6255321;23;20087;-72
2023/04/24 11:34:16;;;;;;;1.70;0.40;;;18.90;58.90;;;;;;6245623;22;20019;-72
2023/04/24 11:36:47;;;;;;;1.40;0.30;;;17.90;90.80;;;;;;6254766;22;20000;-71
2023/04/24 11:39:14;;;;;;;2.40;0.50;;;18.00;90.70;;;;;;6245359;22;20461;-71
2023/04/24 11:41:40;;;;;;;1.63;0.35;;;;;;;;;;6255559;22;19997;-72
2023/04/24 11:44:10;;;;;;;3.05;0.52;;;18.10;90.70;;;;;;6255433;23;20000;-71
2023/04/24 11:46:37;;;;;;;1.50;0.40;;;18.70;88.20;;;;;;6255159;22;20008;-71
2023/04/24 11:49:03;;;;;;;2.28;0.43;;;;;;;;;;6255373;22;20086;-71
2023/04/24 11:51:29;;;;;;;1.35;0.65;;;;;;;;;;6255189;23;20007;-71
2023/04/24 11:53:56;;;;;;;2.05;0.40;;;18.60;66.70;;;;;;6255259;23;19993;-71
2023/04/24 11:56:23;;;;;;;1.20;0.40;;;18.30;91.00;;;;;;6255253;22;19996;-71
2023/04/24 11:58:52;;;;;;;1.27;0.50;;;18.50;58.80;;;;;;6255400;22;20003;-71
2023/04/24 12:01:18;;;;;;;2.10;0.40;;;18.70;91.00;;;;;;6255219;22;19996;-71
2023/04/24 12:03:48;;;;;;;0.95;0.52;;;18.40;90.80;;;;;;6254792;23;20066;-71
2023/04/24 12:06:14;;;;;;;2.33;0.50;;;18.40;90.70;;;;;;6254679;22;19996;-71
2023/04/24 12:08:39;;;;;;;1.25;0.40;;;18.90;90.40;;;;;;6244822;22;20008;-71
2023/04/24 12:11:07;;;;;;;1.13;0.73;;;17.00;57.30;;;;;;6245262;23;19996;-71
2023/04/24 12:13:33;;;;;;;0.70;0.45;;;18.60;90.50;;;;;;6255098;22;20019;-72
2023/04/24 12:15:59;;;;;;;1.38;0.60;;;18.90;83.40;;;;;;6255018;22;20063;-71
2023/04/24 12:18:26;;;;;;;1.42;0.77;;;19.10;57.70;;;;;;6255149;22;19996;-78
2023/04/24 12:20:51;;;;;;;0.95;0.73;;;19.10;76.60;;;;;;6255001;22;19992;-78
2023/04/24 12:23:34;;;;;;;2.53;0.63;;;19.00;57.20;;;;;;6255082;23;19996;-78
2023/04/24 12:26:01;;;;;;;0.82;0.35;;;18.80;90.10;;;;;;6255099;22;20385;-78
2023/04/24 12:28:38;;;;;;;1.40;0.38;;;18.70;90.00;;;;;;6255126;22;20037;-78
2023/04/24 12:31:04;;;;;;;1.85;0.60;;;19.00;90.10;;;;;;6254979;22;20000;-78
2023/04/24 12:33:34;;;;;;;1.35;0.38;;;18.90;89.90;;;;;;6255111;22;20423;-78
2023/04/24 12:36:00;;;;;;;1.13;0.38;;;;;;;;;;6255068;22;20446;-78
2023/04/24 12:38:39;;;;;;;3.00;0.50;;;19.20;84.60;;;;;;6255291;23;20000;-78
2023/04/24 12:41:11;;;;;;;1.17;0.47;;;19.20;68.60;;;;;;6255020;22;19992;-78
2023/04/24 12:43:37;;;;;;;1.70;0.52;;;18.90;90.10;;;;;;6254859;22;20027;-77
2023/04/24 12:46:03;;;;;;;3.15;0.80;;;18.90;89.90;;;;;;6254860;22;20086;-78
2023/04/24 12:48:30;;;;;;;4.38;0.52;;;;;;;;;;6244868;22;20403;-78
2023/04/24 12:51:01;;;;;;;1.55;0.47;;;18.90;56.70;;;;;;6244865;22;20000;-79
2023/04/24 12:53:28;;;;;;;1.77;0.52;;;19.20;90.00;;;;;;6244877;22;20003;-78
2023/04/24 12:55:53;;;;;;;2.80;0.70;;;19.30;90.00;;;;;;6243158;23;20434;-78
2023/04/24 12:58:20;;;;;;;1.60;0.60;;;19.40;66.70;;;;;;6253084;23;19992;-80
2023/04/24 13:00:46;;;;;;;2.45;0.70;;;18.80;68.80;;;;;;6254721;23;19996;-78
2023/04/24 13:03:12;;;;;;;1.65;0.73;;;18.90;88.90;;;;;;6254524;22;20070;-78
2023/04/24 13:05:38;;;;;;;3.38;0.50;;;19.60;89.40;;;;;;6254708;23;19996;-78
2023/04/24 13:08:04;;;;;;;4.28;1.00;;;19.20;89.10;;;;;;6254678;23;20054;-78
2023/04/24 13:10:30;;;;;;;2.75;0.70;;;19.50;89.30;;;;;;6254800;22;19996;-78
2023/04/24 13:12:56;;;;;;;1.23;0.40;;;;;;;;;;6254736;22;20497;-79
2023/04/24 13:15:22;;;;;;;3.53;0.95;;;19.10;89.30;;;;;;6244838;23;20324;-78
2023/04/24 13:17:47;;;;;;;1.88;0.73;;;;;;;;;;6254583;22;19996;-77
2023/04/24 13:20:13;;;;;;;2.20;0.57;;;;;;;;;;6254393;23;19996;-78
2023/04/24 13:22:39;;;;;;;1.73;0.65;;;19.20;69.20;;;;;;6254471;23;20003;-78